createdAt,value
2023-01-22T00:02:26.502Z,6
2023-01-22T00:12:34.396Z,5.9
2023-01-22T00:22:42.230Z,5.6
2023-01-22T00:32:50.068Z,5.4
2023-01-22T00:42:57.901Z,5.2
2023-01-22T00:53:05.861Z,5.1
2023-01-22T01:03:13.631Z,4.8
2023-01-22T01:13:21.423Z,4.6
2023-01-22T01:23:31.565Z,4.5
2023-01-22T01:33:29.488Z,4.3
2023-01-22T01:43:37.355Z,4.2
2023-01-22T01:53:45.290Z,3.9
2023-01-22T02:03:53.207Z,3.5
2023-01-22T02:14:01.092Z,3.7
2023-01-22T02:24:08.909Z,3.5
2023-01-22T02:34:16.785Z,3.3
2023-01-22T02:44:25.669Z,3.1
2023-01-22T02:54:33.523Z,3.3
2023-01-22T03:04:41.318Z,2.9
2023-01-22T03:14:49.261Z,2.4
2023-01-22T03:24:57.667Z,2.1
2023-01-22T03:35:05.587Z,2
2023-01-22T03:45:13.446Z,2.1
2023-01-22T03:55:21.397Z,2
2023-01-22T04:05:29.531Z,2.2
2023-01-22T04:15:37.465Z,2.1
2023-01-22T04:25:45.407Z,2.2
2023-01-22T04:35:53.214Z,2.2
2023-01-22T04:46:01.127Z,2.1
2023-01-22T04:56:09.014Z,2.2
2023-01-22T05:06:16.751Z,2.4
2023-01-22T05:16:24.688Z,2.3
2023-01-22T05:26:32.616Z,2.3
2023-01-22T05:36:40.605Z,2.3
2023-01-22T05:46:40.851Z,2.4
2023-01-22T05:56:48.794Z,2.3
2023-01-22T06:06:56.834Z,2.2
2023-01-22T06:17:04.650Z,2.2
2023-01-22T06:27:12.960Z,2.4
2023-01-22T06:37:21.474Z,2.6
2023-01-22T06:47:29.486Z,2.8
2023-01-22T06:57:38.675Z,2.6
2023-01-22T07:07:46.683Z,2.4
2023-01-22T07:17:54.771Z,2.2
2023-01-22T07:28:02.834Z,2.1
2023-01-22T07:38:10.876Z,1.9
2023-01-22T07:48:19.054Z,2
2023-01-22T07:58:27.395Z,2.1
2023-01-22T08:08:35.798Z,3.4
2023-01-22T08:18:43.990Z,4.3
2023-01-22T08:28:51.952Z,5.3
2023-01-22T08:38:58.797Z,5.6
2023-01-22T08:49:06.796Z,5.6
2023-01-22T08:59:15.764Z,5.7
2023-01-22T09:09:22.976Z,6.5
2023-01-22T09:19:30.752Z,6.5
2023-01-22T09:29:40.461Z,6.4
2023-01-22T09:39:48.573Z,6.9
2023-01-22T09:49:56.595Z,7.5
2023-01-22T10:00:04.512Z,7.1
2023-01-22T10:10:12.300Z,7.7
2023-01-22T10:20:20.360Z,8
2023-01-22T10:30:27.865Z,8.3
2023-01-22T10:40:36.866Z,8.5
2023-01-22T10:50:44.916Z,8.4
2023-01-22T11:00:52.840Z,8.6
2023-01-22T11:11:02.348Z,9.1
2023-01-22T11:21:13.072Z,9.3
2023-01-22T11:31:11.106Z,9.7
2023-01-22T11:41:20.224Z,10.2
2023-01-22T11:51:28.212Z,10.2
2023-01-22T12:01:36.222Z,10.7
2023-01-22T12:13:55.997Z,10.9
2023-01-22T12:24:04.818Z,11
2023-01-22T12:34:04.480Z,11.7
2023-01-22T12:44:12.777Z,11.3
2023-01-22T12:54:20.893Z,11.4
2023-01-22T13:04:30.126Z,12.3
2023-01-22T13:14:40.226Z,12.4
2023-01-22T13:24:39.422Z,12.4
2023-01-22T13:34:47.498Z,12.4
2023-01-22T13:44:55.565Z,11.8
2023-01-22T13:55:03.657Z,11.6
2023-01-22T14:05:12.833Z,11.6
2023-01-22T14:15:21.060Z,11.9
2023-01-22T14:35:32.865Z,12.1
2023-01-22T14:45:29.354Z,12.5
2023-01-22T14:55:37.335Z,11.8
2023-01-22T15:05:45.498Z,11.9
2023-01-22T15:15:45.498Z,11.8
2023-01-22T15:25:55.145Z,11.8
2023-01-22T15:35:58.172Z,12.1
2023-01-22T15:46:11.813Z,11.8
2023-01-22T15:56:14.754Z,11.7
2023-01-22T16:06:23.119Z,11.5
2023-01-22T16:16:31.258Z,11.4
2023-01-22T16:26:40.510Z,11.2
2023-01-22T16:36:48.429Z,11
2023-01-22T16:46:50.262Z,11.1
2023-01-22T16:56:48.605Z,10.7
2023-01-22T17:06:56.565Z,10.5
2023-01-22T17:17:04.325Z,10.5
2023-01-22T17:27:12.476Z,10.5
2023-01-22T17:37:20.420Z,10.3
2023-01-22T17:47:28.590Z,10
2023-01-22T17:57:36.538Z,9.7
2023-01-22T18:07:44.193Z,9.3
2023-01-22T18:17:52.051Z,9.2
2023-01-22T18:28:00.299Z,9.3
2023-01-22T18:38:08.361Z,9.1
2023-01-22T18:48:16.578Z,8.8
2023-01-22T18:58:24.384Z,8.3
2023-01-22T19:08:32.241Z,8.3
2023-01-22T19:18:40.011Z,7.8
2023-01-22T19:28:40.700Z,7.6
2023-01-22T19:38:41.511Z,7.7
2023-01-22T19:48:49.402Z,7.6
2023-01-22T19:58:49.366Z,7.5
2023-01-22T20:08:58.034Z,7.3
2023-01-22T20:19:06.216Z,7.3
2023-01-22T20:29:14.192Z,6.8
2023-01-22T20:39:22.150Z,7.2
2023-01-22T20:49:30.135Z,7
2023-01-22T20:59:39.356Z,7.1
2023-01-22T21:09:47.928Z,6.4
2023-01-22T21:19:55.852Z,6.4
2023-01-22T21:30:03.815Z,5.9
2023-01-22T21:40:11.995Z,6
2023-01-22T21:50:20.051Z,5.9
2023-01-22T22:00:28.492Z,5.9
2023-01-22T22:10:29.975Z,6.3
2023-01-22T22:20:39.289Z,6.1
2023-01-22T22:30:48.486Z,5.9
2023-01-22T22:40:56.670Z,5.7
2023-01-22T22:51:04.773Z,5.8
2023-01-22T23:01:12.977Z,5.7
2023-01-22T23:11:21.273Z,5.4
2023-01-22T23:21:29.423Z,5.3
2023-01-22T23:31:37.506Z,5.2
2023-01-22T23:41:45.401Z,5.3
2023-01-22T23:51:53.415Z,5
